Time;durP1;ratioP1;P1;durP2;ratioP2;P2;SDS_P1;SDS_P2;PMS_P1;PMS_P2;Temp;Humidity;BMP_temperature;BMP_pressure;BME280_temperature;BME280_humidity;BME280_pressure;Samples;Min_cycle;Max_cycle;Signal;HPM_P1;HPM_P2
2022/08/02 00:01:37;;;;;;;2.47;1.50;;;;;;;30.31;33.66;96760.00;5095613;28;20455;-36
2022/08/02 00:04:03;;;;;;;5.05;2.17;;;;;;;30.32;33.85;96755.91;5095517;28;20440;-37
2022/08/02 00:06:29;;;;;;;1.83;1.70;;;;;;;30.33;34.26;96760.19;5095564;28;20028;-36
2022/08/02 00:08:54;;;;;;;2.05;1.60;;;;;;;30.24;34.04;96757.16;5095289;28;20081;-35
2022/08/02 00:11:22;;;;;;;4.43;1.98;;;;;;;30.22;34.02;96759.75;5094878;28;20035;-36
2022/08/02 00:13:47;;;;;;;1.90;1.70;;;;;;;30.24;34.39;96759.97;5095348;28;20091;-36
2022/08/02 00:16:13;;;;;;;2.35;1.80;;;;;;;30.21;34.10;96758.25;5095129;28;20424;-35
2022/08/02 00:18:39;;;;;;;2.30;1.75;;;;;;;30.21;34.26;96759.00;5095152;28;20111;-35
2022/08/02 00:21:05;;;;;;;3.65;2.08;;;;;;;30.28;34.23;96755.53;5094962;28;20058;-35
2022/08/02 00:23:30;;;;;;;1.70;1.60;;;;;;;30.19;34.56;96747.63;5095428;28;20381;-36
2022/08/02 00:25:57;;;;;;;1.92;1.73;;;;;;;30.19;34.52;96753.22;5094951;28;20028;-35
2022/08/02 00:28:24;;;;;;;1.83;1.73;;;;;;;30.19;34.48;96760.84;5095145;28;20024;-37
2022/08/02 00:30:49;;;;;;;2.30;1.67;;;;;;;30.19;34.38;96756.00;5095166;28;20028;-36
2022/08/02 00:33:15;;;;;;;1.90;1.67;;;;;;;30.20;34.67;96754.72;5095166;28;20035;-36
2022/08/02 00:35:41;;;;;;;3.03;1.98;;;;;;;30.18;34.69;96751.72;5089073;28;20119;-35
2022/08/02 00:38:06;;;;;;;2.15;1.95;;;;;;;30.21;34.98;96756.22;5073480;28;20025;-37
2022/08/02 00:40:32;;;;;;;1.63;1.52;;;;;;;30.11;34.92;96752.44;5074586;28;20024;-35
2022/08/02 00:43:06;;;;;;;1.67;1.58;;;;;;;30.09;35.13;96741.03;5074578;28;20074;-36
2022/08/02 00:45:33;;;;;;;1.73;1.63;;;;;;;30.12;35.08;96739.19;5074165;28;20503;-35
2022/08/02 00:47:58;;;;;;;2.88;1.75;;;;;;;30.18;34.95;96739.78;5074248;28;20028;-35
2022/08/02 00:50:25;;;;;;;1.92;1.63;;;;;;;30.22;34.83;96737.38;5074944;28;20055;-35
2022/08/02 00:52:50;;;;;;;2.13;1.70;;;;;;;30.27;34.73;96730.91;5074635;28;20051;-35
2022/08/02 00:55:16;;;;;;;1.70;1.60;;;;;;;30.29;34.94;96726.22;5074153;28;20463;-36
2022/08/02 00:57:41;;;;;;;1.90;1.55;;;;;;;30.24;34.90;96721.56;5074363;28;20056;-35
2022/08/02 01:00:08;;;;;;;3.47;1.80;;;;;;;30.29;34.92;96723.41;5074153;28;20031;-36
2022/08/02 01:02:33;;;;;;;2.08;1.88;;;;;;;30.21;35.30;96727.50;5074055;28;20468;-36
2022/08/02 01:04:59;;;;;;;2.10;1.80;;;;;;;30.23;35.15;96719.31;5074034;28;20044;-37
2022/08/02 01:07:25;;;;;;;2.50;1.88;;;;;;;30.23;35.13;96720.06;5073934;28;20378;-35
2022/08/02 01:09:51;;;;;;;1.85;1.58;;;;;;;30.38;35.27;96722.19;5073760;28;20035;-36
2022/08/02 01:12:16;;;;;;;2.17;1.90;;;;;;;30.28;35.41;96721.94;5074137;28;20016;-36
2022/08/02 01:14:48;;;;;;;2.78;1.85;;;;;;;30.31;35.34;96718.03;5073749;28;20031;-35
2022/08/02 01:17:38;;;;;;;3.50;2.00;;;;;;;30.20;35.67;96723.94;5073867;28;20027;-35
2022/08/02 01:20:22;;;;;;;2.28;1.65;;;;;;;30.30;35.39;96722.13;5073719;28;20254;-35
2022/08/02 01:23:12;;;;;;;2.17;1.83;;;;;;;30.36;35.39;96717.13;5073662;28;20386;-36
2022/08/02 01:26:16;;;;;;;3.15;1.90;;;;;;;30.30;35.20;96719.31;5073670;28;20023;-35
2022/08/02 01:28:57;;;;;;;2.20;2.00;;;;;;;30.24;35.29;96713.16;5072033;28;20037;-35
2022/08/02 01:31:28;;;;;;;1.77;1.60;;;;;;;30.28;35.36;96721.19;5073618;28;20024;-35
2022/08/02 01:34:05;;;;;;;2.25;1.63;;;;;;;30.33;35.19;96725.88;5071975;28;20390;-35
2022/08/02 01:36:37;;;;;;;1.75;1.58;;;;;;;30.34;35.73;96722.53;5073561;28;20021;-36
2022/08/02 01:39:04;;;;;;;1.85;1.60;;;;;;;30.22;35.92;96718.56;5073717;28;20017;-35
2022/08/02 01:41:33;;;;;;;2.83;1.98;;;;;;;30.25;35.78;96719.50;5073255;28;20027;-36
2022/08/02 01:44:00;;;;;;;4.05;1.88;;;;;;;30.24;35.57;96721.56;5073739;28;20025;-35
2022/08/02 01:46:26;;;;;;;2.65;1.90;;;;;;;30.28;35.61;96713.56;5073209;28;20090;-35
2022/08/02 01:48:55;;;;;;;2.13;1.85;;;;;;;30.29;35.22;96714.31;5073631;28;20099;-36
2022/08/02 01:52:20;;;;;;;1.92;1.77;;;;;;;30.26;35.46;96721.75;5073210;28;20035;-35
2022/08/02 01:54:10;;;;;;;2.33;1.92;;;;;;;30.22;35.91;96724.16;5073282;28;20465;-35
2022/08/02 01:56:37;;;;;;;2.75;1.70;;;;;;;30.22;35.42;96726.19;5073465;28;20020;-36
2022/08/02 01:59:04;;;;;;;2.30;1.77;;;;;;;30.24;35.37;96726.41;5073243;28;20060;-35
2022/08/02 02:01:33;;;;;;;2.42;2.00;;;;;;;30.18;35.67;96723.00;5073241;28;20025;-37
2022/08/02 02:04:00;;;;;;;3.10;1.60;;;;;;;30.24;35.50;96721.56;5073189;28;20020;-35
2022/08/02 02:06:26;;;;;;;2.08;1.88;;;;;;;30.19;36.01;96725.25;5073139;28;20070;-36
2022/08/02 02:08:52;;;;;;;3.30;2.00;;;;;;;30.21;35.86;96719.09;5073415;28;20379;-35
2022/08/02 02:11:18;;;;;;;2.53;1.80;;;;;;;30.18;35.61;96723.75;5073113;28;20131;-35
2022/08/02 02:13:44;;;;;;;2.45;1.85;;;;;;;30.21;35.87;96719.09;5073321;28;20447;-36
2022/08/02 02:16:12;;;;;;;2.28;1.92;;;;;;;30.29;35.91;96717.81;5073249;28;20044;-35
2022/08/02 02:18:42;;;;;;;1.73;1.63;;;;;;;30.21;35.60;96721.91;5073291;28;20019;-35
2022/08/02 02:21:08;;;;;;;3.22;1.70;;;;;;;30.31;35.92;96723.63;5073076;28;20029;-36
2022/08/02 02:23:33;;;;;;;2.83;1.83;;;;;;;30.22;36.10;96723.41;5073274;28;20070;-36
2022/08/02 02:26:03;;;;;;;2.08;1.80;;;;;;;30.28;35.69;96721.94;5073269;28;20482;-35
2022/08/02 02:28:31;;;;;;;2.30;1.92;;;;;;;30.26;35.97;96729.41;5073303;28;20366;-35
2022/08/02 02:31:20;;;;;;;3.97;2.13;;;;;;;30.29;35.64;96717.81;5073133;28;20454;-36
2022/08/02 02:34:00;;;;;;;2.90;1.70;;;;;;;30.29;35.81;96719.91;5073024;28;20441;-35
2022/08/02 02:36:28;;;;;;;2.88;1.75;;;;;;;30.25;35.59;96719.50;5073070;28;20029;-35
2022/08/02 02:38:58;;;;;;;3.60;2.10;;;;;;;30.27;35.49;96717.66;5073143;28;20029;-36
2022/08/02 02:41:25;;;;;;;2.28;1.90;;;;;;;30.32;35.64;96727.16;5072868;28;20028;-36
2022/08/02 02:43:54;;;;;;;2.17;1.92;;;;;;;30.31;35.77;96715.22;5073000;28;20024;-35
2022/08/02 02:46:21;;;;;;;2.22;2.00;;;;;;;30.27;35.32;96712.06;5075507;28;20410;-35
2022/08/02 02:48:48;;;;;;;3.60;1.95;;;;;;;30.32;35.80;96722.31;5076614;28;20447;-35
2022/08/02 02:51:14;;;;;;;4.22;1.85;;;;;;;30.30;35.68;96716.53;5076774;28;20104;-35
2022/08/02 02:53:43;;;;;;;2.85;1.73;;;;;;;30.29;35.42;96720.63;5076440;28;20078;-35
2022/08/02 02:56:10;;;;;;;2.95;1.80;;;;;;;30.26;35.30;96712.59;5076450;28;20035;-35
2022/08/02 02:58:37;;;;;;;3.80;1.90;;;;;;;30.34;35.54;96718.97;5076457;28;20029;-35
2022/08/02 03:03:49;;;;;;;2.47;2.10;;;;;;;30.31;35.43;96709.63;5076862;28;20119;-35
2022/08/02 03:06:14;;;;;;;1.90;1.77;;;;;;;30.20;35.79;96709.97;5076305;28;20048;-35
2022/08/02 03:08:40;;;;;;;4.60;2.00;;;;;;;30.29;35.24;96712.22;5076150;28;20078;-35
2022/08/02 03:11:08;;;;;;;4.25;2.10;;;;;;;30.30;35.69;96715.78;5076195;28;20025;-36
2022/08/02 03:13:34;;;;;;;2.13;1.90;;;;;;;30.25;35.56;96714.66;5076291;28;20029;-36
2022/08/02 03:16:02;;;;;;;2.60;2.00;;;;;;;30.29;35.72;96717.09;5076106;28;20036;-36
2022/08/02 03:18:34;;;;;;;2.42;1.90;;;;;;;30.31;35.67;96711.69;5076240;28;20024;-35
2022/08/02 03:21:05;;;;;;;4.45;1.70;;;;;;;30.27;35.53;96714.84;5075462;28;20059;-35
2022/08/02 03:23:31;;;;;;;2.50;1.88;;;;;;;30.27;35.71;96716.91;5076000;28;20103;-35
2022/08/02 03:25:57;;;;;;;4.25;2.17;;;;;;;30.25;35.97;96711.09;5075897;28;20493;-35
2022/08/02 03:28:23;;;;;;;3.78;2.17;;;;;;;30.26;35.72;96715.41;5075890;28;20025;-36
2022/08/02 03:30:49;;;;;;;2.15;1.95;;;;;;;30.22;35.68;96717.81;5076119;28;20406;-35
2022/08/02 03:33:14;;;;;;;4.28;2.45;;;;;;;30.27;35.46;96709.25;5075744;28;20121;-35
2022/08/02 03:35:43;;;;;;;4.10;2.08;;;;;;;30.24;35.88;96718.75;5075697;28;20025;-35
2022/08/02 03:38:11;;;;;;;2.28;2.08;;;;;;;30.29;35.42;96711.50;5075665;28;20025;-35
2022/08/02 03:40:37;;;;;;;2.22;2.08;;;;;;;30.26;35.61;96724.56;5075796;28;20052;-35
2022/08/02 03:43:04;;;;;;;3.10;2.17;;;;;;;30.19;35.71;96721.69;5075764;28;20103;-35
2022/08/02 03:45:30;;;;;;;2.33;2.10;;;;;;;30.23;35.85;96720.06;5075771;28;20540;-35
2022/08/02 03:47:56;;;;;;;3.30;2.35;;;;;;;30.20;35.37;96718.34;5075733;28;20032;-36
2022/08/02 03:50:22;;;;;;;3.08;2.13;;;;;;;30.23;35.81;96720.06;5075578;28;20029;-35
2022/08/02 03:52:48;;;;;;;2.92;2.00;;;;;;;30.23;35.50;96725.66;5075566;28;20036;-35
2022/08/02 03:55:14;;;;;;;3.10;2.10;;;;;;;30.25;35.72;96716.69;5075417;28;20043;-36
2022/08/02 03:57:41;;;;;;;5.00;2.13;;;;;;;30.20;36.04;96709.97;5074979;28;20021;-35
2022/08/02 04:00:08;;;;;;;2.35;1.83;;;;;;;30.22;35.51;96712.19;5075382;28;20067;-36
2022/08/02 04:02:35;;;;;;;2.63;1.90;;;;;;;30.20;35.73;96715.56;5075304;28;20044;-35
2022/08/02 04:05:00;;;;;;;3.35;2.15;;;;;;;30.19;35.81;96713.31;5075221;28;20029;-35
2022/08/02 04:07:26;;;;;;;2.50;2.10;;;;;;;30.22;35.80;96718.56;5075436;28;20363;-36
2022/08/02 04:09:51;;;;;;;3.10;1.70;;;;;;;30.18;35.73;96723.75;5074914;28;20025;-36
2022/08/02 04:12:17;;;;;;;2.83;1.90;;;;;;;30.15;35.57;96716.47;5075158;28;20044;-36
2022/08/02 04:14:43;;;;;;;2.20;1.85;;;;;;;30.20;35.61;96718.34;5075223;28;20074;-36
2022/08/02 04:17:11;;;;;;;3.53;2.20;;;;;;;30.21;35.56;96717.06;5075038;28;20020;-35
2022/08/02 04:19:52;;;;;;;3.67;2.20;;;;;;;30.12;35.70;96717.56;5075156;28;20058;-35
2022/08/02 04:22:33;;;;;;;2.80;2.10;;;;;;;30.16;35.59;96720.78;5075042;28;20055;-35
2022/08/02 04:25:01;;;;;;;6.18;2.30;;;;;;;30.17;35.66;96722.25;5074855;28;20112;-35
2022/08/02 04:27:29;;;;;;;3.33;2.10;;;;;;;30.11;35.83;96724.47;5074666;28;20360;-36
2022/08/02 04:29:57;;;;;;;2.53;2.30;;;;;;;30.15;35.64;96724.88;5087952;28;20020;-35
2022/08/02 04:32:23;;;;;;;5.47;2.92;;;;;;;30.17;36.00;96727.09;5073297;28;20047;-36
2022/08/02 04:34:49;;;;;;;2.42;2.22;;;;;;;30.12;36.17;96728.00;5085055;28;20032;-36
2022/08/02 04:37:14;;;;;;;3.95;2.17;;;;;;;30.13;36.20;96738.66;5093482;28;20027;-37
2022/08/02 04:39:41;;;;;;;4.32;2.30;;;;;;;30.07;36.34;96735.25;5092939;28;20099;-36
2022/08/02 04:42:07;;;;;;;2.75;2.05;;;;;;;30.12;35.78;96737.16;5093149;28;20031;-35
2022/08/02 04:44:42;;;;;;;;;;;;;;;;;;;;;
2022/08/02 04:47:08;;;;;;;3.67;2.47;;;;;;;30.09;36.35;96735.44;5077824;28;20036;-35
2022/08/02 04:49:33;;;;;;;5.00;2.13;;;;;;;30.06;36.58;96733.00;5072663;28;20054;-35
2022/08/02 04:51:59;;;;;;;3.80;2.20;;;;;;;30.09;36.53;96738.25;5072580;28;20024;-35
2022/08/02 04:54:25;;;;;;;4.60;2.42;;;;;;;30.08;36.61;96736.00;5072795;28;20028;-35
2022/08/02 04:56:50;;;;;;;3.25;2.30;;;;;;;30.11;36.60;96738.44;5071350;28;20029;-36
2022/08/02 04:59:16;;;;;;;2.30;2.10;;;;;;;30.10;36.55;96739.00;5072590;28;20031;-35
2022/08/02 05:01:41;;;;;;;3.67;2.17;;;;;;;30.15;36.67;96738.09;5072621;28;20048;-35
2022/08/02 05:04:07;;;;;;;3.47;2.30;;;;;;;30.13;36.75;96735.84;5072421;28;20036;-35
2022/08/02 05:06:33;;;;;;;2.53;1.90;;;;;;;30.14;36.30;96742.94;5072430;28;20074;-35
2022/08/02 05:08:58;;;;;;;3.63;2.55;;;;;;;30.08;36.30;96736.75;5071684;28;20039;-35
2022/08/02 05:11:25;;;;;;;4.13;2.58;;;;;;;30.06;36.63;96733.00;5072282;28;20024;-35
2022/08/02 05:13:50;;;;;;;3.42;2.20;;;;;;;30.12;36.64;96736.41;5072260;28;20035;-35
2022/08/02 05:16:16;;;;;;;2.63;2.40;;;;;;;30.05;36.46;96740.63;5072310;28;20036;-35
2022/08/02 05:18:41;;;;;;;3.10;2.33;;;;;;;30.08;36.84;96736.00;5072280;28;20052;-35
2022/08/02 05:21:07;;;;;;;2.70;2.40;;;;;;;30.06;36.60;96739.34;5072309;28;20379;-35
2022/08/02 05:23:32;;;;;;;2.88;2.58;;;;;;;30.07;36.62;96745.69;5084695;28;20049;-35
2022/08/02 05:25:58;;;;;;;2.75;2.47;;;;;;;30.09;36.73;96735.44;5092475;28;20027;-35
2022/08/02 05:28:24;;;;;;;3.35;2.40;;;;;;;30.01;37.37;96731.88;5092001;28;20081;-35
2022/08/02 05:30:50;;;;;;;4.15;2.45;;;;;;;30.07;37.16;96728.91;5092269;28;20027;-35
2022/08/02 05:33:15;;;;;;;4.85;2.65;;;;;;;30.04;37.18;96730.03;5092263;28;20034;-35
2022/08/02 05:35:41;;;;;;;2.90;2.38;;;;;;;30.06;37.27;96730.94;5092241;28;20032;-35
2022/08/02 05:38:06;;;;;;;3.78;2.70;;;;;;;30.07;37.26;96729.66;5091995;28;20119;-35
2022/08/02 05:40:32;;;;;;;6.03;2.40;;;;;;;30.06;37.09;96728.16;5092101;28;20020;-35
2022/08/02 05:42:57;;;;;;;4.80;2.25;;;;;;;30.08;37.09;96730.41;5092080;28;20109;-35
2022/08/02 05:45:23;;;;;;;3.58;2.58;;;;;;;30.05;37.20;96726.66;5091967;28;20077;-34
2022/08/02 05:47:48;;;;;;;4.65;2.53;;;;;;;30.06;37.33;96728.16;5091934;28;20024;-35
2022/08/02 05:50:14;;;;;;;3.10;2.53;;;;;;;30.04;37.56;96727.97;5091919;28;20490;-35
2022/08/02 05:52:45;;;;;;;2.40;2.20;;;;;;;30.04;37.37;96730.03;5091631;28;20043;-36
2022/08/02 05:55:16;;;;;;;2.83;2.60;;;;;;;30.07;37.71;96728.91;5090925;28;20096;-36
2022/08/02 05:57:50;;;;;;;3.15;2.38;;;;;;;30.01;37.72;96737.47;5092160;28;20024;-35
2022/08/02 06:00:16;;;;;;;4.03;2.38;;;;;;;30.05;37.80;96739.88;5091692;28;20035;-35
2022/08/02 06:02:42;;;;;;;2.67;2.08;;;;;;;30.05;37.55;96735.03;5091699;28;20024;-35
2022/08/02 06:05:13;;;;;;;3.05;2.40;;;;;;;30.03;38.36;96739.72;5091763;28;20024;-35
2022/08/02 06:07:41;;;;;;;3.28;2.30;;;;;;;30.07;38.03;96740.84;5083180;28;20032;-35
2022/08/02 06:10:08;;;;;;;4.22;2.20;;;;;;;30.04;38.36;96747.56;5071353;28;20024;-35
2022/08/02 06:12:47;;;;;;;5.38;2.42;;;;;;;30.06;38.00;96742.13;5071796;28;20025;-36
2022/08/02 06:15:14;;;;;;;4.47;2.40;;;;;;;30.04;38.57;96746.81;5071579;28;20021;-35
2022/08/02 06:17:40;;;;;;;3.72;2.38;;;;;;;30.03;38.36;96748.84;5071646;28;20024;-35
2022/08/02 06:20:06;;;;;;;5.55;2.35;;;;;;;30.03;38.42;96745.31;5074125;28;20443;-35
2022/08/02 06:22:33;;;;;;;2.28;2.00;;;;;;;30.04;38.33;96746.81;5075516;28;20028;-35
2022/08/02 06:25:00;;;;;;;3.38;2.22;;;;;;;30.01;38.57;96751.44;5075519;28;20115;-36
2022/08/02 06:27:26;;;;;;;4.07;2.63;;;;;;;30.02;38.74;96752.94;5075376;28;20043;-35
2022/08/02 06:29:53;;;;;;;3.13;2.30;;;;;;;30.07;38.36;96760.41;5075268;28;20115;-35
2022/08/02 06:32:19;;;;;;;3.70;2.33;;;;;;;30.05;38.93;96760.22;5075282;28;20097;-36
2022/08/02 06:34:45;;;;;;;4.43;2.13;;;;;;;30.04;38.82;96755.19;5075303;28;20474;-35
2022/08/02 06:37:23;;;;;;;2.67;2.30;;;;;;;30.00;38.99;96749.94;5075353;28;20246;-35
2022/08/02 06:39:53;;;;;;;3.90;2.70;;;;;;;30.03;39.44;96756.50;5074974;28;20020;-35
2022/08/02 06:42:30;;;;;;;4.45;2.35;;;;;;;29.84;40.04;96762.28;5075211;28;20028;-36
2022/08/02 06:44:56;;;;;;;3.95;2.58;;;;;;;29.82;40.29;96759.28;5075106;28;20052;-35
2022/08/02 06:47:21;;;;;;;2.72;1.90;;;;;;;29.91;40.45;96764.41;5075279;28;20021;-35
2022/08/02 06:49:47;;;;;;;3.38;2.45;;;;;;;29.77;41.48;96760.94;5076264;28;20471;-35
2022/08/02 06:52:12;;;;;;;4.13;2.50;;;;;;;29.92;40.33;96771.50;5076688;28;20138;-36
2022/08/02 06:54:40;;;;;;;3.78;2.42;;;;;;;29.85;40.76;96766.56;5076581;28;20032;-35
2022/08/02 06:57:08;;;;;;;3.53;2.50;;;;;;;29.88;40.66;96768.28;5076481;28;20024;-36
2022/08/02 06:59:33;;;;;;;3.78;2.45;;;;;;;29.98;40.28;96772.09;5076351;28;20056;-35
2022/08/02 07:02:01;;;;;;;3.72;2.90;;;;;;;29.90;39.96;96772.03;5076834;28;20044;-35
2022/08/02 07:04:28;;;;;;;3.33;2.75;;;;;;;29.81;40.97;96774.56;5076288;28;20078;-35
2022/08/02 07:06:55;;;;;;;4.30;2.90;;;;;;;29.76;40.49;96773.41;5077075;28;20037;-35
2022/08/02 07:09:21;;;;;;;4.65;2.80;;;;;;;29.89;40.54;96780.97;5076505;28;20098;-36
2022/08/02 07:11:46;;;;;;;4.15;2.80;;;;;;;29.95;40.16;96782.31;5076197;28;20144;-35
2022/08/02 07:14:12;;;;;;;4.70;3.30;;;;;;;29.98;39.83;96786.09;5076203;28;20025;-35
2022/08/02 07:16:37;;;;;;;3.97;2.88;;;;;;;30.02;39.54;96783.72;5076042;28;20028;-35
2022/08/02 07:19:05;;;;;;;4.50;3.13;;;;;;;29.95;40.02;96773.16;5076099;28;20032;-35
2022/08/02 07:21:31;;;;;;;3.30;2.97;;;;;;;29.91;40.27;96783.97;5075940;28;20089;-37
2022/08/02 07:23:56;;;;;;;3.28;2.92;;;;;;;29.85;40.11;96778.50;5075805;28;20514;-35
2022/08/02 07:26:21;;;;;;;4.85;3.00;;;;;;;28.89;42.23;96770.91;5075851;28;20047;-34
2022/08/02 07:28:47;;;;;;;4.05;2.90;;;;;;;29.30;41.19;96772.25;5075361;28;20029;-34
2022/08/02 07:31:12;;;;;;;5.95;2.90;;;;;;;29.57;40.49;96773.63;5075209;28;20155;-34
2022/08/02 07:33:38;;;;;;;4.90;3.47;;;;;;;29.65;40.17;96768.88;5075796;28;20027;-34
2022/08/02 07:36:04;;;;;;;3.90;2.70;;;;;;;29.70;40.02;96763.66;5075558;28;20079;-34
2022/08/02 07:38:29;;;;;;;4.03;2.70;;;;;;;29.75;39.86;96760.75;5075614;28;20025;-34
2022/08/02 07:40:55;;;;;;;4.68;2.80;;;;;;;29.80;39.66;96751.44;5075941;28;20033;-34
2022/08/02 07:43:20;;;;;;;3.78;2.95;;;;;;;29.77;39.75;96757.41;5075642;28;20051;-34
2022/08/02 07:45:45;;;;;;;3.80;2.80;;;;;;;29.75;39.64;96766.31;5075471;28;20050;-34
2022/08/02 07:48:11;;;;;;;2.78;2.55;;;;;;;29.79;39.36;96763.19;5075472;28;20111;-35
2022/08/02 07:50:37;;;;;;;4.25;3.15;;;;;;;29.79;39.50;96766.75;5075559;28;20029;-34
2022/08/02 07:53:03;;;;;;;4.10;3.13;;;;;;;29.81;39.52;96757.78;5075409;28;20023;-34
2022/08/02 07:55:28;;;;;;;3.60;2.53;;;;;;;29.80;39.50;96756.28;5075543;28;20020;-34
2022/08/02 07:57:54;;;;;;;4.00;2.58;;;;;;;29.67;39.78;96756.38;5075279;28;20029;-34
2022/08/02 08:00:19;;;;;;;6.22;3.00;;;;;;;29.71;39.47;96759.56;5075711;28;20047;-34
2022/08/02 08:02:46;;;;;;;4.30;2.90;;;;;;;29.80;39.13;96761.88;5075243;28;20401;-34
2022/08/02 08:05:11;;;;;;;3.22;2.67;;;;;;;29.76;39.56;96753.09;5075312;28;20422;-34
2022/08/02 08:07:37;;;;;;;2.97;2.65;;;;;;;29.72;39.26;96758.28;5075294;28;20059;-34
2022/08/02 08:10:05;;;;;;;3.28;2.85;;;;;;;29.74;39.28;96758.47;5075141;28;20421;-34
2022/08/02 08:12:30;;;;;;;4.95;2.78;;;;;;;29.76;39.33;96762.25;5075195;28;20028;-34
2022/08/02 08:14:56;;;;;;;3.28;2.92;;;;;;;29.76;39.26;96758.69;5075423;28;20074;-34
2022/08/02 08:17:22;;;;;;;3.35;2.80;;;;;;;29.77;39.49;96757.41;5075121;28;20021;-34
2022/08/02 08:19:47;;;;;;;3.97;2.65;;;;;;;29.74;39.03;96759.22;5074894;28;20028;-34
2022/08/02 08:22:13;;;;;;;4.40;2.67;;;;;;;29.74;39.25;96761.28;5074953;28;20107;-34
2022/08/02 08:24:39;;;;;;;4.10;2.80;;;;;;;29.72;39.37;96750.66;5075063;28;20413;-35
2022/08/02 08:27:05;;;;;;;3.47;2.80;;;;;;;29.72;39.09;96747.09;5074943;28;20029;-34
2022/08/02 08:29:30;;;;;;;6.40;2.75;;;;;;;29.46;39.24;96751.56;5074548;28;20052;-34
2022/08/02 08:31:56;;;;;;;3.83;2.60;;;;;;;29.57;38.78;96748.47;5074728;28;20023;-35
2022/08/02 08:34:22;;;;;;;5.10;2.60;;;;;;;29.62;38.79;96750.38;5074680;28;20029;-34
2022/08/02 08:36:49;;;;;;;3.60;2.50;;;;;;;29.64;38.57;96747.81;5074590;28;20032;-34
2022/08/02 08:39:14;;;;;;;4.30;2.40;;;;;;;29.57;38.60;96754.06;5074762;28;20021;-35
2022/08/02 08:41:42;;;;;;;3.95;2.63;;;;;;;29.70;38.36;96763.66;5074538;28;20035;-34
2022/08/02 08:44:08;;;;;;;2.90;2.60;;;;;;;29.73;38.43;96759.78;5074556;28;20436;-34
2022/08/02 08:46:36;;;;;;;3.10;2.78;;;;;;;29.68;38.13;96761.41;5074725;28;20082;-34
2022/08/02 08:49:08;;;;;;;4.28;2.60;;;;;;;29.65;38.15;96768.13;5072461;28;20466;-34
2022/08/02 08:51:42;;;;;;;3.65;2.13;;;;;;;29.59;38.28;96764.69;5074349;28;20020;-34
2022/08/02 08:54:11;;;;;;;2.88;2.55;;;;;;;29.69;38.10;96770.53;5074834;28;20024;-34
2022/08/02 08:56:38;;;;;;;4.32;2.92;;;;;;;29.71;38.09;96771.50;5074107;28;20023;-34
2022/08/02 08:59:03;;;;;;;3.10;1.98;;;;;;;29.72;38.16;96775.81;5074111;28;20425;-34
2022/08/02 09:01:29;;;;;;;2.95;2.20;;;;;;;29.72;37.05;96781.38;5074118;28;20024;-34
2022/08/02 09:03:55;;;;;;;2.28;1.88;;;;;;;29.47;33.65;96781.00;5074345;28;20362;-34
2022/08/02 09:06:21;;;;;;;2.70;2.20;;;;;;;29.60;34.81;96783.72;5074391;28;20028;-34
2022/08/02 09:08:47;;;;;;;4.32;2.67;;;;;;;29.65;37.39;96780.03;5073915;28;20142;-34
2022/08/02 09:11:15;;;;;;;2.70;2.25;;;;;;;29.80;36.79;96781.44;5074377;28;20025;-34
2022/08/02 09:13:56;;;;;;;3.05;2.35;;;;;;;29.64;35.89;96783.38;5073947;28;20392;-34
2022/08/02 09:16:32;;;;;;;2.08;1.95;;;;;;;29.69;33.06;96781.72;5073958;28;20020;-34
2022/08/02 09:18:58;;;;;;;2.33;2.13;;;;;;;29.70;34.40;96780.44;5074109;28;20024;-34
2022/08/02 09:21:33;;;;;;;3.85;1.75;;;;;;;29.70;34.91;96780.44;5073720;28;20020;-34
2022/08/02 09:23:59;;;;;;;2.10;1.80;;;;;;;29.71;34.30;96782.69;5074164;28;20059;-34
2022/08/02 09:26:25;;;;;;;4.03;1.80;;;;;;;29.64;34.40;96778.53;5073961;28;20052;-34
2022/08/02 09:28:58;;;;;;;1.90;1.80;;;;;;;29.75;34.12;96774.72;5073651;28;20025;-34
2022/08/02 09:31:24;;;;;;;3.67;1.88;;;;;;;29.69;33.76;96774.09;5073675;28;20475;-34
2022/08/02 09:33:56;;;;;;;2.20;2.00;;;;;;;29.65;33.94;96780.03;5073549;28;20074;-34
2022/08/02 09:36:23;;;;;;;2.22;1.75;;;;;;;29.72;33.64;96777.84;5073628;28;20470;-34
2022/08/02 09:39:02;;;;;;;1.77;1.67;;;;;;;29.72;32.51;96777.84;5073849;28;20020;-34
2022/08/02 09:41:30;;;;;;;2.38;1.77;;;;;;;29.72;32.51;96770.22;5073519;28;20044;-34
2022/08/02 09:43:57;;;;;;;1.70;1.60;;;;;;;29.76;33.06;96772.66;5073735;28;20057;-34
2022/08/02 09:46:25;;;;;;;2.50;1.52;;;;;;;29.80;32.85;96773.06;5073274;28;20052;-34
2022/08/02 09:48:52;;;;;;;2.47;1.70;;;;;;;29.75;33.07;96771.16;5073495;28;20060;-34
2022/08/02 09:51:19;;;;;;;3.00;1.60;;;;;;;29.77;32.13;96763.00;5073467;28;20047;-34
2022/08/02 09:53:46;;;;;;;1.90;1.75;;;;;;;29.69;32.37;96767.75;5072911;28;20466;-36
2022/08/02 09:56:12;;;;;;;1.70;1.60;;;;;;;29.69;32.50;96762.16;5073354;28;20044;-35
2022/08/02 09:58:38;;;;;;;1.58;1.45;;;;;;;29.79;32.47;96761.16;5073452;28;20016;-34
2022/08/02 10:01:07;;;;;;;1.88;1.70;;;;;;;29.77;32.20;96763.00;5073361;28;20020;-34
2022/08/02 10:03:33;;;;;;;2.63;1.85;;;;;;;29.70;31.44;96749.69;5073668;28;20502;-34
2022/08/02 10:06:00;;;;;;;2.83;1.42;;;;;;;29.28;32.21;96756.03;5073167;28;20029;-34
2022/08/02 10:08:27;;;;;;;3.05;1.58;;;;;;;29.43;32.20;96755.44;5073210;28;20056;-35
2022/08/02 10:10:59;;;;;;;2.90;1.63;;;;;;;29.69;31.67;96753.78;5073382;28;20387;-34
2022/08/02 10:13:31;;;;;;;1.55;1.38;;;;;;;29.67;31.42;96757.13;5073268;28;20032;-36
2022/08/02 10:15:56;;;;;;;1.90;1.17;;;;;;;29.65;31.19;96760.47;5073066;28;20055;-35
2022/08/02 10:18:22;;;;;;;2.78;1.35;;;;;;;29.45;31.07;96754.88;5073066;28;20285;-34
2022/08/02 10:20:49;;;;;;;1.70;1.30;;;;;;;29.74;31.08;96753.66;5073108;28;20057;-35
2022/08/02 10:23:15;;;;;;;1.48;1.15;;;;;;;29.76;30.87;96755.91;5073001;28;20093;-34
2022/08/02 10:25:43;;;;;;;1.33;1.20;;;;;;;29.67;30.98;96748.00;5073103;28;20471;-34
2022/08/02 10:28:11;;;;;;;1.30;1.10;;;;;;;29.73;31.00;96748.59;5073115;28;20054;-34
2022/08/02 10:30:40;;;;;;;1.40;1.20;;;;;;;29.75;30.78;96748.81;5073301;28;20052;-35
2022/08/02 10:33:08;;;;;;;1.70;1.40;;;;;;;29.76;30.71;96751.06;5073754;28;20028;-34
2022/08/02 10:35:37;;;;;;;1.50;1.30;;;;;;;29.76;31.21;96753.84;5073157;28;20031;-34
2022/08/02 10:38:08;;;;;;;2.88;1.10;;;;;;;29.80;30.30;96750.69;5072932;28;20044;-34
2022/08/02 10:40:48;;;;;;;1.63;1.20;;;;;;;29.83;30.10;96741.97;5073237;28;20474;-34
2022/08/02 10:43:34;;;;;;;1.38;1.25;;;;;;;29.87;30.47;96747.22;5073064;28;20048;-34
2022/08/02 10:46:18;;;;;;;5.57;1.50;;;;;;;29.86;30.82;96737.31;5072795;28;20131;-34
2022/08/02 10:49:08;;;;;;;1.98;1.45;;;;;;;29.81;29.79;96741.00;5072766;28;20162;-34
2022/08/02 10:52:01;;;;;;;1.83;1.30;;;;;;;29.81;30.11;96733.38;5073235;28;20021;-34
2022/08/02 10:54:31;;;;;;;;;;;;;;;29.87;29.78;96738.81;5073323;28;20016;-35
2022/08/02 10:56:57;;;;;;;2.05;1.42;;;;;;;29.81;29.94;96727.78;5073004;28;19919;-34
2022/08/02 10:59:28;;;;;;;1.83;1.40;;;;;;;29.84;29.81;96729.47;5072772;28;20020;-34
2022/08/02 11:02:01;;;;;;;2.55;1.75;;;;;;;29.81;30.27;96741.75;5073014;28;20031;-34
2022/08/02 11:04:36;;;;;;;2.25;1.70;;;;;;;29.76;30.19;96727.94;5072715;28;20063;-35
2022/08/02 11:07:16;;;;;;;2.85;1.58;;;;;;;29.86;30.35;96737.31;5074988;28;20074;-34
2022/08/02 11:09:47;;;;;;;2.70;1.67;;;;;;;29.83;30.07;96725.19;5076319;28;20024;-34
2022/08/02 11:12:17;;;;;;;2.10;1.70;;;;;;;29.90;30.35;96718.16;5076292;28;20421;-34
2022/08/02 11:14:56;;;;;;;3.47;1.60;;;;;;;29.94;30.29;96729.72;5076203;28;20020;-34
2022/08/02 11:17:22;;;;;;;2.45;1.50;;;;;;;29.83;30.01;96716.06;5076387;28;20055;-35
2022/08/02 11:20:09;;;;;;;2.15;1.95;;;;;;;29.89;29.74;96722.25;5076128;28;20028;-35
2022/08/02 11:22:35;;;;;;;3.70;1.73;;;;;;;29.80;30.01;96709.50;5076086;28;20111;-36
2022/08/02 11:25:22;;;;;;;2.58;1.60;;;;;;;29.90;30.10;96716.13;5076283;28;20096;-35
2022/08/02 11:27:52;;;;;;;3.88;1.58;;;;;;;29.96;29.98;96715.97;5075882;28;20047;-35
2022/08/02 11:30:19;;;;;;;1.73;1.52;;;;;;;29.76;29.83;96723.09;5076235;28;20032;-34
2022/08/02 11:32:44;;;;;;;2.25;1.50;;;;;;;29.84;30.09;96726.69;5076327;28;20535;-35
2022/08/02 11:35:10;;;;;;;2.20;1.73;;;;;;;29.85;30.37;96713.47;5076107;28;20115;-34
2022/08/02 11:37:38;;;;;;;2.28;1.63;;;;;;;29.81;30.65;96715.84;5075667;28;20028;-34
2022/08/02 11:40:09;;;;;;;2.00;1.80;;;;;;;29.83;29.60;96710.47;5075666;28;20021;-35
2022/08/02 11:42:36;;;;;;;4.03;1.75;;;;;;;29.88;29.56;96701.94;5074561;28;20029;-34